sensor_id;sensor_type;location;lat;lon;timestamp;pressure;altitude;pressure_sealevel;temperature;humidity
12594;BME280;6362;50.208;9.182;2024-01-15T00:00:39;98739.22;;;-3.15;100.00
12594;BME280;6362;50.208;9.182;2024-01-15T00:03:05;98738.78;;;-3.30;100.00
12594;BME280;6362;50.208;9.182;2024-01-15T00:05:30;98733.00;;;-3.25;100.00
12594;BME280;6362;50.208;9.182;2024-01-15T00:07:56;98719.63;;;-3.17;100.00
12594;BME280;6362;50.208;9.182;2024-01-15T00:10:22;98725.66;;;-3.15;100.00
12594;BME280;6362;50.208;9.182;2024-01-15T00:12:48;98717.22;;;-3.13;100.00
12594;BME280;6362;50.208;9.182;2024-01-15T00:15:13;98721.00;;;-3.30;100.00
12594;BME280;6362;50.208;9.182;2024-01-15T00:17:39;98717.16;;;-3.16;100.00
12594;BME280;6362;50.208;9.182;2024-01-15T00:20:05;98714.47;;;-3.21;100.00
12594;BME280;6362;50.208;9.182;2024-01-15T00:22:30;98710.28;;;-3.19;100.00
12594;BME280;6362;50.208;9.182;2024-01-15T00:24:57;98708.53;;;-3.21;100.00
12594;BME280;6362;50.208;9.182;2024-01-15T00:27:22;98695.03;;;-3.19;100.00
12594;BME280;6362;50.208;9.182;2024-01-15T00:29:49;98695.13;;;-3.15;100.00
12594;BME280;6362;50.208;9.182;2024-01-15T00:32:15;98695.88;;;-3.20;100.00
12594;BME280;6362;50.208;9.182;2024-01-15T00:34:41;98691.47;;;-3.25;100.00
12594;BME280;6362;50.208;9.182;2024-01-15T00:37:06;98695.19;;;-3.12;100.00
12594;BME280;6362;50.208;9.182;2024-01-15T00:39:32;98697.38;;;-3.26;100.00
12594;BME280;6362;50.208;9.182;2024-01-15T00:41:58;98683.69;;;-3.31;100.00
12594;BME280;6362;50.208;9.182;2024-01-15T00:44:23;98692.34;;;-3.25;100.00
12594;BME280;6362;50.208;9.182;2024-01-15T00:46:49;98683.59;;;-3.34;100.00
12594;BME280;6362;50.208;9.182;2024-01-15T00:49:14;98679.31;;;-3.35;100.00
12594;BME280;6362;50.208;9.182;2024-01-15T00:51:40;98677.47;;;-3.41;100.00
12594;BME280;6362;50.208;9.182;2024-01-15T00:54:06;98679.25;;;-3.38;100.00
12594;BME280;6362;50.208;9.182;2024-01-15T00:56:31;98684.94;;;-3.47;100.00
12594;BME280;6362;50.208;9.182;2024-01-15T00:58:57;98685.13;;;-3.39;100.00
12594;BME280;6362;50.208;9.182;2024-01-15T01:01:22;98678.75;;;-3.25;100.00
12594;BME280;6362;50.208;9.182;2024-01-15T01:03:48;98688.03;;;-3.27;100.00
12594;BME280;6362;50.208;9.182;2024-01-15T01:06:13;98684.59;;;-3.28;100.00
12594;BME280;6362;50.208;9.182;2024-01-15T01:08:39;98674.66;;;-3.20;100.00
12594;BME280;6362;50.208;9.182;2024-01-15T01:11:04;98674.41;;;-3.29;100.00
12594;BME280;6362;50.208;9.182;2024-01-15T01:13:32;98668.75;;;-3.19;100.00
12594;BME280;6362;50.208;9.182;2024-01-15T01:15:58;98672.09;;;-3.22;100.00
12594;BME280;6362;50.208;9.182;2024-01-15T01:18:23;98674.41;;;-3.29;100.00
12594;BME280;6362;50.208;9.182;2024-01-15T01:20:49;98677.69;;;-3.33;100.00
12594;BME280;6362;50.208;9.182;2024-01-15T01:23:14;98668.59;;;-3.25;100.00
12594;BME280;6362;50.208;9.182;2024-01-15T01:25:40;98667.31;;;-3.41;100.00
12594;BME280;6362;50.208;9.182;2024-01-15T01:28:05;98665.31;;;-3.21;100.00
12594;BME280;6362;50.208;9.182;2024-01-15T01:30:31;98661.81;;;-3.25;100.00
12594;BME280;6362;50.208;9.182;2024-01-15T01:32:56;98660.94;;;-3.27;100.00
12594;BME280;6362;50.208;9.182;2024-01-15T01:35:22;98659.13;;;-3.31;100.00
12594;BME280;6362;50.208;9.182;2024-01-15T01:37:47;98660.56;;;-3.40;100.00
12594;BME280;6362;50.208;9.182;2024-01-15T01:40:13;98661.34;;;-3.43;100.00
12594;BME280;6362;50.208;9.182;2024-01-15T01:42:38;98666.75;;;-3.31;100.00
12594;BME280;6362;50.208;9.182;2024-01-15T01:45:04;98664.34;;;-3.26;100.00
12594;BME280;6362;50.208;9.182;2024-01-15T01:47:30;98655.00;;;-3.27;100.00
12594;BME280;6362;50.208;9.182;2024-01-15T01:49:56;98652.44;;;-3.27;100.00
12594;BME280;6362;50.208;9.182;2024-01-15T01:52:22;98655.72;;;-3.31;100.00
12594;BME280;6362;50.208;9.182;2024-01-15T01:54:47;98656.63;;;-3.29;100.00
12594;BME280;6362;50.208;9.182;2024-01-15T01:57:13;98659.19;;;-3.28;100.00
12594;BME280;6362;50.208;9.182;2024-01-15T01:59:40;98664.13;;;-3.34;100.00
12594;BME280;6362;50.208;9.182;2024-01-15T02:02:06;98663.22;;;-3.36;100.00
12594;BME280;6362;50.208;9.182;2024-01-15T02:04:32;98659.41;;;-3.20;100.00
12594;BME280;6362;50.208;9.182;2024-01-15T02:06:59;98646.03;;;-3.13;100.00
12594;BME280;6362;50.208;9.182;2024-01-15T02:09:25;98645.00;;;-3.20;100.00
12594;BME280;6362;50.208;9.182;2024-01-15T02:11:51;98653.53;;;-3.17;100.00
12594;BME280;6362;50.208;9.182;2024-01-15T02:14:16;98650.16;;;-3.16;100.00
12594;BME280;6362;50.208;9.182;2024-01-15T02:16:42;98645.97;;;-3.16;100.00
12594;BME280;6362;50.208;9.182;2024-01-15T02:19:07;98646.81;;;-3.15;100.00
12594;BME280;6362;50.208;9.182;2024-01-15T02:21:39;98643.47;;;-3.14;100.00
12594;BME280;6362;50.208;9.182;2024-01-15T02:24:05;98635.84;;;-3.13;100.00
12594;BME280;6362;50.208;9.182;2024-01-15T02:26:30;98620.56;;;-3.14;100.00
12594;BME280;6362;50.208;9.182;2024-01-15T02:28:56;98632.50;;;-3.12;100.00
12594;BME280;6362;50.208;9.182;2024-01-15T02:31:21;98635.16;;;-3.07;100.00
12594;BME280;6362;50.208;9.182;2024-01-15T02:33:47;98630.88;;;-3.10;100.00
12594;BME280;6362;50.208;9.182;2024-01-15T02:36:12;98631.00;;;-3.05;100.00
12594;BME280;6362;50.208;9.182;2024-01-15T02:38:38;98631.72;;;-3.09;100.00
12594;BME280;6362;50.208;9.182;2024-01-15T02:41:04;98638.38;;;-3.14;100.00
12594;BME280;6362;50.208;9.182;2024-01-15T02:43:29;98629.34;;;-3.03;100.00
12594;BME280;6362;50.208;9.182;2024-01-15T02:45:55;98631.00;;;-3.05;100.00
12594;BME280;6362;50.208;9.182;2024-01-15T02:48:20;98638.69;;;-3.02;100.00
12594;BME280;6362;50.208;9.182;2024-01-15T02:50:46;98641.91;;;-3.08;100.00
12594;BME280;6362;50.208;9.182;2024-01-15T02:53:11;98634.56;;;-2.97;100.00
12594;BME280;6362;50.208;9.182;2024-01-15T02:55:36;98625.19;;;-3.00;100.00
12594;BME280;6362;50.208;9.182;2024-01-15T02:58:03;98621.75;;;-3.00;100.00
12594;BME280;6362;50.208;9.182;2024-01-15T03:00:28;98626.06;;;-2.98;100.00
12594;BME280;6362;50.208;9.182;2024-01-15T03:02:55;98633.69;;;-2.99;100.00
12594;BME280;6362;50.208;9.182;2024-01-15T03:05:20;98625.25;;;-2.97;100.00
12594;BME280;6362;50.208;9.182;2024-01-15T03:07:46;98621.06;;;-2.95;100.00
12594;BME280;6362;50.208;9.182;2024-01-15T03:10:11;98626.22;;;-2.92;100.00
12594;BME280;6362;50.208;9.182;2024-01-15T03:12:37;98623.56;;;-2.96;100.00
12594;BME280;6362;50.208;9.182;2024-01-15T03:15:03;98620.28;;;-2.92;100.00
12594;BME280;6362;50.208;9.182;2024-01-15T03:17:28;98623.56;;;-2.96;100.00
12594;BME280;6362;50.208;9.182;2024-01-15T03:19:54;98621.13;;;-2.93;100.00
12594;BME280;6362;50.208;9.182;2024-01-15T03:22:19;98626.22;;;-2.92;100.00
12594;BME280;6362;50.208;9.182;2024-01-15T03:24:44;98625.41;;;-2.90;100.00
12594;BME280;6362;50.208;9.182;2024-01-15T03:27:10;98625.44;;;-2.89;100.00
12594;BME280;6362;50.208;9.182;2024-01-15T03:29:36;98634.09;;;-2.82;100.00
12594;BME280;6362;50.208;9.182;2024-01-15T03:32:01;98632.59;;;-2.74;100.00
12594;BME280;6362;50.208;9.182;2024-01-15T03:34:27;98628.19;;;-2.81;100.00
12594;BME280;6362;50.208;9.182;2024-01-15T03:36:52;98633.19;;;-2.84;100.00
12594;BME280;6362;50.208;9.182;2024-01-15T03:39:17;98632.19;;;-2.91;100.00
12594;BME280;6362;50.208;9.182;2024-01-15T03:41:43;98627.31;;;-2.82;100.00
12594;BME280;6362;50.208;9.182;2024-01-15T03:44:08;98635.78;;;-2.83;100.00
12594;BME280;6362;50.208;9.182;2024-01-15T03:46:34;98617.34;;;-2.73;100.00
12594;BME280;6362;50.208;9.182;2024-01-15T03:48:59;98630.91;;;-2.74;100.00
12594;BME280;6362;50.208;9.182;2024-01-15T03:51:25;98619.84;;;-2.76;100.00
12594;BME280;6362;50.208;9.182;2024-01-15T03:53:50;98626.78;;;-2.69;100.00
12594;BME280;6362;50.208;9.182;2024-01-15T03:56:16;98631.84;;;-2.70;100.00
12594;BME280;6362;50.208;9.182;2024-01-15T03:58:41;98634.88;;;-2.83;100.00
12594;BME280;6362;50.208;9.182;2024-01-15T04:01:10;98637.66;;;-2.74;100.00
12594;BME280;6362;50.208;9.182;2024-01-15T04:03:36;98633.25;;;-2.83;100.00
12594;BME280;6362;50.208;9.182;2024-01-15T04:06:02;98620.31;;;-2.90;100.00
12594;BME280;6362;50.208;9.182;2024-01-15T04:08:28;98616.34;;;-2.79;100.00
12594;BME280;6362;50.208;9.182;2024-01-15T04:10:53;98619.88;;;-2.74;100.00
12594;BME280;6362;50.208;9.182;2024-01-15T04:13:20;98613.13;;;-2.72;100.00
12594;BME280;6362;50.208;9.182;2024-01-15T04:15:45;98604.63;;;-2.73;100.00
12594;BME280;6362;50.208;9.182;2024-01-15T04:18:11;98611.66;;;-2.62;100.00
12594;BME280;6362;50.208;9.182;2024-01-15T04:20:36;98610.63;;;-2.71;100.00
12594;BME280;6362;50.208;9.182;2024-01-15T04:23:02;98604.84;;;-2.63;100.00
12594;BME280;6362;50.208;9.182;2024-01-15T04:25:27;98613.94;;;-2.73;100.00
12594;BME280;6362;50.208;9.182;2024-01-15T04:27:53;98611.50;;;-2.69;100.00
12594;BME280;6362;50.208;9.182;2024-01-15T04:30:19;98616.59;;;-2.69;100.00
12594;BME280;6362;50.208;9.182;2024-01-15T04:32:44;98605.56;;;-2.69;100.00
12594;BME280;6362;50.208;9.182;2024-01-15T04:35:09;98608.94;;;-2.70;100.00
12594;BME280;6362;50.208;9.182;2024-01-15T04:37:35;98614.00;;;-2.72;100.00
12594;BME280;6362;50.208;9.182;2024-01-15T04:40:00;98609.09;;;-2.62;100.00
12594;BME280;6362;50.208;9.182;2024-01-15T04:42:26;98608.94;;;-2.70;100.00
12594;BME280;6362;50.208;9.182;2024-01-15T04:44:51;98605.69;;;-2.64;100.00
12594;BME280;6362;50.208;9.182;2024-01-15T04:47:17;98590.84;;;-2.45;100.00
12594;BME280;6362;50.208;9.182;2024-01-15T04:49:42;98596.59;;;-2.55;100.00
12594;BME280;6362;50.208;9.182;2024-01-15T04:52:08;98596.78;;;-2.46;100.00
12594;BME280;6362;50.208;9.182;2024-01-15T04:54:36;98593.81;;;-2.64;100.00
12594;BME280;6362;50.208;9.182;2024-01-15T04:57:01;98601.00;;;-2.46;100.00
12594;BME280;6362;50.208;9.182;2024-01-15T04:59:27;98595.88;;;-2.49;100.00
12594;BME280;6362;50.208;9.182;2024-01-15T05:01:53;98598.28;;;-2.55;100.00
12594;BME280;6362;50.208;9.182;2024-01-15T05:04:18;98600.38;;;-2.37;100.00
12594;BME280;6362;50.208;9.182;2024-01-15T05:06:44;98597.34;;;-2.57;100.00
12594;BME280;6362;50.208;9.182;2024-01-15T05:09:09;98588.16;;;-2.51;100.00
12594;BME280;6362;50.208;9.182;2024-01-15T05:11:35;98590.81;;;-2.46;100.00
12594;BME280;6362;50.208;9.182;2024-01-15T05:14:00;98588.16;;;-2.51;100.00
12594;BME280;6362;50.208;9.182;2024-01-15T05:16:26;98583.94;;;-2.50;100.00
12594;BME280;6362;50.208;9.182;2024-01-15T05:18:51;98587.66;;;-2.36;100.00
12594;BME280;6362;50.208;9.182;2024-01-15T05:21:17;98585.97;;;-2.35;100.00
12594;BME280;6362;50.208;9.182;2024-01-15T05:23:42;98580.03;;;-2.36;100.00
12594;BME280;6362;50.208;9.182;2024-01-15T05:26:07;98574.91;;;-2.37;100.00
12594;BME280;6362;50.208;9.182;2024-01-15T05:28:34;98579.19;;;-2.35;100.00
12594;BME280;6362;50.208;9.182;2024-01-15T05:31:00;98577.56;;;-2.33;100.00
12594;BME280;6362;50.208;9.182;2024-01-15T05:33:25;98572.28;;;-2.41;100.00
12594;BME280;6362;50.208;9.182;2024-01-15T05:35:51;98573.63;;;-2.56;100.00
12594;BME280;6362;50.208;9.182;2024-01-15T05:38:17;98579.53;;;-2.57;100.00
12594;BME280;6362;50.208;9.182;2024-01-15T05:40:42;98576.03;;;-2.62;100.00
12594;BME280;6362;50.208;9.182;2024-01-15T05:43:08;98575.97;;;-2.66;100.00
12594;BME280;6362;50.208;9.182;2024-01-15T05:45:34;98572.09;;;-2.50;100.00
12594;BME280;6362;50.208;9.182;2024-01-15T05:48:01;98572.72;;;-2.60;100.00
12594;BME280;6362;50.208;9.182;2024-01-15T05:50:26;98568.63;;;-2.52;100.00
12594;BME280;6362;50.208;9.182;2024-01-15T05:52:52;98567.94;;;-2.45;100.00
12594;BME280;6362;50.208;9.182;2024-01-15T05:55:17;98563.72;;;-2.44;100.00
12594;BME280;6362;50.208;9.182;2024-01-15T05:57:44;98568.66;;;-2.50;100.00
12594;BME280;6362;50.208;9.182;2024-01-15T06:00:10;98562.84;;;-2.45;100.00
12594;BME280;6362;50.208;9.182;2024-01-15T06:02:37;98567.81;;;-2.51;100.00
12594;BME280;6362;50.208;9.182;2024-01-15T06:05:04;98565.34;;;-2.48;100.00
12594;BME280;6362;50.208;9.182;2024-01-15T06:07:29;98563.03;;;-2.37;100.00
12594;BME280;6362;50.208;9.182;2024-01-15T06:09:55;98568.41;;;-2.23;100.00
12594;BME280;6362;50.208;9.182;2024-01-15T06:12:22;98568.09;;;-2.38;100.00
12594;BME280;6362;50.208;9.182;2024-01-15T06:14:48;98565.47;;;-2.42;100.00
12594;BME280;6362;50.208;9.182;2024-01-15T06:17:13;98568.88;;;-2.41;100.00
12594;BME280;6362;50.208;9.182;2024-01-15T06:19:39;98567.88;;;-2.48;100.00
12594;BME280;6362;50.208;9.182;2024-01-15T06:22:04;98570.00;;;-2.28;100.00
12594;BME280;6362;50.208;9.182;2024-01-15T06:24:30;98557.03;;;-2.39;100.00
12594;BME280;6362;50.208;9.182;2024-01-15T06:26:55;98566.22;;;-2.46;100.00
12594;BME280;6362;50.208;9.182;2024-01-15T06:29:21;98570.66;;;-2.38;100.00
12594;BME280;6362;50.208;9.182;2024-01-15T06:31:46;98566.66;;;-2.26;100.00
12594;BME280;6362;50.208;9.182;2024-01-15T06:34:12;98571.13;;;-2.16;100.00
12594;BME280;6362;50.208;9.182;2024-01-15T06:36:37;98571.81;;;-2.23;100.00
12594;BME280;6362;50.208;9.182;2024-01-15T06:39:03;98570.81;;;-2.29;100.00
12594;BME280;6362;50.208;9.182;2024-01-15T06:41:29;98569.09;;;-2.32;100.00
12594;BME280;6362;50.208;9.182;2024-01-15T06:43:54;98572.31;;;-2.39;100.00
12594;BME280;6362;50.208;9.182;2024-01-15T06:46:21;98577.56;;;-2.33;100.00
12594;BME280;6362;50.208;9.182;2024-01-15T06:48:47;98577.00;;;-2.18;100.00
12594;BME280;6362;50.208;9.182;2024-01-15T06:51:12;98572.72;;;-2.21;100.00
12594;BME280;6362;50.208;9.182;2024-01-15T06:53:38;98574.19;;;-2.32;100.00
12594;BME280;6362;50.208;9.182;2024-01-15T06:56:03;98573.19;;;-2.38;100.00
12594;BME280;6362;50.208;9.182;2024-01-15T06:58:30;98578.19;;;-2.42;100.00
12594;BME280;6362;50.208;9.182;2024-01-15T07:00:56;98582.47;;;-2.39;100.00
12594;BME280;6362;50.208;9.182;2024-01-15T07:03:21;98582.69;;;-2.30;100.00
12594;BME280;6362;50.208;9.182;2024-01-15T07:05:47;98578.41;;;-2.32;100.00
12594;BME280;6362;50.208;9.182;2024-01-15T07:08:13;98575.22;;;-2.22;100.00
12594;BME280;6362;50.208;9.182;2024-01-15T07:10:38;98576.81;;;-2.27;100.00
12594;BME280;6362;50.208;9.182;2024-01-15T07:13:04;98569.13;;;-2.29;100.00
12594;BME280;6362;50.208;9.182;2024-01-15T07:15:31;98577.72;;;-2.24;100.00
12594;BME280;6362;50.208;9.182;2024-01-15T07:17:56;98568.41;;;-2.23;100.00
12594;BME280;6362;50.208;9.182;2024-01-15T07:20:22;98571.16;;;-2.14;100.00
12594;BME280;6362;50.208;9.182;2024-01-15T07:22:48;98570.31;;;-2.13;100.00
12594;BME280;6362;50.208;9.182;2024-01-15T07:25:13;98572.47;;;-1.91;100.00
12594;BME280;6362;50.208;9.182;2024-01-15T07:27:39;98569.16;;;-1.88;100.00
12594;BME280;6362;50.208;9.182;2024-01-15T07:30:05;98576.72;;;-1.91;100.00
12594;BME280;6362;50.208;9.182;2024-01-15T07:32:31;98582.53;;;-1.97;100.00
12594;BME280;6362;50.208;9.182;2024-01-15T07:34:57;98579.47;;;-1.80;100.00
12594;BME280;6362;50.208;9.182;2024-01-15T07:37:24;98580.94;;;-1.48;100.00
12594;BME280;6362;50.208;9.182;2024-01-15T07:39:50;98582.97;;;-1.28;100.00
12594;BME280;6362;50.208;9.182;2024-01-15T07:42:18;98588.91;;;-1.31;100.00
12594;BME280;6362;50.208;9.182;2024-01-15T07:44:44;98590.72;;;-1.24;100.00
12594;BME280;6362;50.208;9.182;2024-01-15T07:47:10;98589.94;;;-1.20;100.00
12594;BME280;6362;50.208;9.182;2024-01-15T07:49:35;98587.47;;;-1.15;100.00
12594;BME280;6362;50.208;9.182;2024-01-15T07:52:01;98581.38;;;-1.23;100.00
12594;BME280;6362;50.208;9.182;2024-01-15T07:54:27;98577.47;;;-1.51;100.00
12594;BME280;6362;50.208;9.182;2024-01-15T07:56:54;98582.44;;;-1.59;100.00
12594;BME280;6362;50.208;9.182;2024-01-15T07:59:20;98579.81;;;-1.62;100.00
12594;BME280;6362;50.208;9.182;2024-01-15T08:01:45;98582.47;;;-1.57;100.00
12594;BME280;6362;50.208;9.182;2024-01-15T08:04:12;98574.69;;;-1.65;100.00
12594;BME280;6362;50.208;9.182;2024-01-15T08:06:38;98573.72;;;-1.72;100.00
12594;BME280;6362;50.208;9.182;2024-01-15T08:09:04;98572.91;;;-1.69;100.00
12594;BME280;6362;50.208;9.182;2024-01-15T08:11:29;98585.19;;;-1.92;100.00
12594;BME280;6362;50.208;9.182;2024-01-15T08:13:55;98573.56;;;-1.78;100.00
12594;BME280;6362;50.208;9.182;2024-01-15T08:16:21;98569.91;;;-1.92;100.00
12594;BME280;6362;50.208;9.182;2024-01-15T08:18:47;98570.63;;;-1.98;100.00
12594;BME280;6362;50.208;9.182;2024-01-15T08:21:12;98568.34;;;-1.86;100.00
12594;BME280;6362;50.208;9.182;2024-01-15T08:23:38;98570.75;;;-1.92;100.00
12594;BME280;6362;50.208;9.182;2024-01-15T08:26:04;98563.03;;;-1.96;100.00
12594;BME280;6362;50.208;9.182;2024-01-15T08:28:30;98564.59;;;-2.03;100.00
12594;BME280;6362;50.208;9.182;2024-01-15T08:30:56;98557.16;;;-1.94;100.00
12594;BME280;6362;50.208;9.182;2024-01-15T08:33:21;98559.09;;;-1.80;100.00
12594;BME280;6362;50.208;9.182;2024-01-15T08:35:47;98561.63;;;-1.82;100.00
12594;BME280;6362;50.208;9.182;2024-01-15T08:38:13;98560.00;;;-1.77;100.00
12594;BME280;6362;50.208;9.182;2024-01-15T08:40:38;98566.00;;;-1.73;100.00
12594;BME280;6362;50.208;9.182;2024-01-15T08:43:04;98560.03;;;-1.75;100.00
12594;BME280;6362;50.208;9.182;2024-01-15T08:45:32;98562.59;;;-1.75;100.00
12594;BME280;6362;50.208;9.182;2024-01-15T08:47:57;98558.47;;;-1.69;100.00
12594;BME280;6362;50.208;9.182;2024-01-15T08:50:23;98558.44;;;-1.70;100.00
12594;BME280;6362;50.208;9.182;2024-01-15T08:52:49;98576.19;;;-1.73;100.00
12594;BME280;6362;50.208;9.182;2024-01-15T08:55:14;98566.63;;;-1.87;100.00
12594;BME280;6362;50.208;9.182;2024-01-15T08:57:39;98563.44;;;-1.76;100.00
12594;BME280;6362;50.208;9.182;2024-01-15T09:00:05;98572.16;;;-1.62;100.00
12594;BME280;6362;50.208;9.182;2024-01-15T09:02:34;98566.94;;;-1.70;100.00
12594;BME280;6362;50.208;9.182;2024-01-15T09:05:00;98559.53;;;-1.56;100.00
12594;BME280;6362;50.208;9.182;2024-01-15T09:07:25;98555.44;;;-1.49;100.00
12594;BME280;6362;50.208;9.182;2024-01-15T09:09:52;98553.88;;;-1.41;100.00
12594;BME280;6362;50.208;9.182;2024-01-15T09:12:18;98564.03;;;-1.43;100.00
12594;BME280;6362;50.208;9.182;2024-01-15T09:14:46;98568.97;;;-1.50;100.00
12594;BME280;6362;50.208;9.182;2024-01-15T09:17:12;98568.09;;;-1.54;100.00
12594;BME280;6362;50.208;9.182;2024-01-15T09:19:37;98566.50;;;-1.47;100.00
12594;BME280;6362;50.208;9.182;2024-01-15T09:22:05;98568.94;;;-1.53;100.00
12594;BME280;6362;50.208;9.182;2024-01-15T09:24:30;98564.06;;;-1.41;100.00
12594;BME280;6362;50.208;9.182;2024-01-15T09:26:56;98563.28;;;-1.39;100.00
12594;BME280;6362;50.208;9.182;2024-01-15T09:29:21;98560.53;;;-1.49;100.00
12594;BME280;6362;50.208;9.182;2024-01-15T09:31:49;98568.38;;;-1.39;100.00
12594;BME280;6362;50.208;9.182;2024-01-15T09:34:15;98567.50;;;-1.39;100.00
12594;BME280;6362;50.208;9.182;2024-01-15T09:36:41;98557.22;;;-1.44;100.00
12594;BME280;6362;50.208;9.182;2024-01-15T09:39:08;98557.34;;;-1.38;100.00
12594;BME280;6362;50.208;9.182;2024-01-15T09:41:37;98555.69;;;-1.34;100.00
12594;BME280;6362;50.208;9.182;2024-01-15T09:44:03;98552.59;;;-1.16;100.00
12594;BME280;6362;50.208;9.182;2024-01-15T09:46:31;98543.38;;;-1.08;100.00
12594;BME280;6362;50.208;9.182;2024-01-15T09:48:58;98548.41;;;-1.13;100.00
12594;BME280;6362;50.208;9.182;2024-01-15T09:51:24;98545.00;;;-1.13;100.00
12594;BME280;6362;50.208;9.182;2024-01-15T09:53:50;98541.59;;;-1.12;100.00
12594;BME280;6362;50.208;9.182;2024-01-15T09:56:15;98542.34;;;-1.19;100.00
12594;BME280;6362;50.208;9.182;2024-01-15T09:58:41;98534.97;;;-1.01;100.00
12594;BME280;6362;50.208;9.182;2024-01-15T10:01:08;98534.03;;;-1.08;100.00
12594;BME280;6362;50.208;9.182;2024-01-15T10:03:34;98540.84;;;-1.07;100.00
12594;BME280;6362;50.208;9.182;2024-01-15T10:06:00;98529.94;;;-0.98;100.00
12594;BME280;6362;50.208;9.182;2024-01-15T10:08:26;98538.56;;;-0.90;100.00
12594;BME280;6362;50.208;9.182;2024-01-15T10:10:52;98536.09;;;-0.84;100.00
12594;BME280;6362;50.208;9.182;2024-01-15T10:13:17;98530.13;;;-0.86;100.00
12594;BME280;6362;50.208;9.182;2024-01-15T10:15:46;98531.75;;;-0.89;100.00
12594;BME280;6362;50.208;9.182;2024-01-15T10:18:15;98525.97;;;-0.79;100.00
12594;BME280;6362;50.208;9.182;2024-01-15T10:20:40;98524.25;;;-0.80;100.00
12594;BME280;6362;50.208;9.182;2024-01-15T10:23:06;98526.03;;;-0.76;100.00
12594;BME280;6362;50.208;9.182;2024-01-15T10:25:31;98528.56;;;-0.77;100.00
12594;BME280;6362;50.208;9.182;2024-01-15T10:28:01;98523.22;;;-0.93;100.00
12594;BME280;6362;50.208;9.182;2024-01-15T10:30:27;98505.44;;;-0.88;100.00
12594;BME280;6362;50.208;9.182;2024-01-15T10:33:03;98508.84;;;-0.85;100.00
12594;BME280;6362;50.208;9.182;2024-01-15T10:35:33;98513.09;;;-0.85;100.00
12594;BME280;6362;50.208;9.182;2024-01-15T10:38:00;98501.59;;;-0.59;100.00
12594;BME280;6362;50.208;9.182;2024-01-15T10:40:25;98504.28;;;-0.49;100.00
12594;BME280;6362;50.208;9.182;2024-01-15T10:42:51;98494.75;;;-0.60;100.00
12594;BME280;6362;50.208;9.182;2024-01-15T10:45:17;98496.41;;;-0.62;100.00
12594;BME280;6362;50.208;9.182;2024-01-15T10:47:43;98491.38;;;-0.59;100.00
12594;BME280;6362;50.208;9.182;2024-01-15T10:50:09;98484.50;;;-0.61;100.00
12594;BME280;6362;50.208;9.182;2024-01-15T10:52:36;98484.63;;;-0.54;100.00
12594;BME280;6362;50.208;9.182;2024-01-15T10:55:03;98487.41;;;-0.37;100.00
12594;BME280;6362;50.208;9.182;2024-01-15T10:57:29;98484.00;;;-0.37;100.00
12594;BME280;6362;50.208;9.182;2024-01-15T10:59:55;98477.19;;;-0.38;100.00
12594;BME280;6362;50.208;9.182;2024-01-15T11:02:21;98478.91;;;-0.36;100.00
12594;BME280;6362;50.208;9.182;2024-01-15T11:04:47;98478.16;;;-0.25;100.00
12594;BME280;6362;50.208;9.182;2024-01-15T11:07:13;98473.09;;;-0.22;100.00
12594;BME280;6362;50.208;9.182;2024-01-15T11:09:39;98474.00;;;-0.19;100.00
12594;BME280;6362;50.208;9.182;2024-01-15T11:12:13;98475.69;;;-0.21;100.00
12594;BME280;6362;50.208;9.182;2024-01-15T11:14:46;98464.06;;;0.09;100.00
12594;BME280;6362;50.208;9.182;2024-01-15T11:17:12;98457.41;;;0.24;100.00
12594;BME280;6362;50.208;9.182;2024-01-15T11:19:46;98450.03;;;0.57;100.00
12594;BME280;6362;50.208;9.182;2024-01-15T11:24:58;98446.88;;;0.90;100.00
12594;BME280;6362;50.208;9.182;2024-01-15T11:27:46;98445.91;;;0.72;100.00
12594;BME280;6362;50.208;9.182;2024-01-15T11:30:25;98446.72;;;0.71;100.00
12594;BME280;6362;50.208;9.182;2024-01-15T11:32:51;98433.84;;;0.59;100.00
12594;BME280;6362;50.208;9.182;2024-01-15T11:35:16;98445.59;;;0.34;100.00
12594;BME280;6362;50.208;9.182;2024-01-15T11:40:36;98432.00;;;0.40;100.00
12594;BME280;6362;50.208;9.182;2024-01-15T11:43:03;98448.19;;;0.42;100.00
12594;BME280;6362;50.208;9.182;2024-01-15T11:45:30;98443.88;;;0.35;100.00
12594;BME280;6362;50.208;9.182;2024-01-15T11:50:44;98445.38;;;0.11;100.00
12594;BME280;6362;50.208;9.182;2024-01-15T11:55:41;98444.22;;;-0.15;100.00
12594;BME280;6362;50.208;9.182;2024-01-15T11:58:10;98440.78;;;-0.17;100.00
12594;BME280;6362;50.208;9.182;2024-01-15T12:00:40;98439.97;;;-0.15;100.00
12594;BME280;6362;50.208;9.182;2024-01-15T12:03:06;98436.59;;;-0.12;100.00
12594;BME280;6362;50.208;9.182;2024-01-15T12:05:32;98433.16;;;-0.14;100.00
12594;BME280;6362;50.208;9.182;2024-01-15T12:07:57;98435.72;;;-0.14;100.00
12594;BME280;6362;50.208;9.182;2024-01-15T12:10:23;98432.25;;;-0.19;100.00
12594;BME280;6362;50.208;9.182;2024-01-15T12:13:11;98425.44;;;-0.20;100.00
12594;BME280;6362;50.208;9.182;2024-01-15T12:15:38;98420.34;;;-0.17;100.00
12594;BME280;6362;50.208;9.182;2024-01-15T12:18:07;98420.41;;;-0.14;100.00
12594;BME280;6362;50.208;9.182;2024-01-15T12:20:33;98423.81;;;-0.12;100.00
12594;BME280;6362;50.208;9.182;2024-01-15T12:23:01;98410.19;;;-0.11;100.00
12594;BME280;6362;50.208;9.182;2024-01-15T12:25:29;98413.63;;;-0.09;100.00
12594;BME280;6362;50.208;9.182;2024-01-15T12:27:55;98409.41;;;-0.06;100.00
12594;BME280;6362;50.208;9.182;2024-01-15T12:30:21;98399.94;;;-0.14;100.00
12594;BME280;6362;50.208;9.182;2024-01-15T12:32:47;98411.88;;;-0.16;100.00
12594;BME280;6362;50.208;9.182;2024-01-15T12:35:13;98405.19;;;-0.02;100.00
12594;BME280;6362;50.208;9.182;2024-01-15T12:37:40;98411.13;;;-0.03;100.00
12594;BME280;6362;50.208;9.182;2024-01-15T12:40:08;98410.91;;;-0.23;100.00
12594;BME280;6362;50.208;9.182;2024-01-15T12:42:44;98421.13;;;-0.23;100.00
12594;BME280;6362;50.208;9.182;2024-01-15T12:45:11;98409.38;;;-0.10;100.00
12594;BME280;6362;50.208;9.182;2024-01-15T12:47:37;98414.38;;;-0.18;100.00
12594;BME280;6362;50.208;9.182;2024-01-15T12:50:05;98422.00;;;-0.22;100.00
12594;BME280;6362;50.208;9.182;2024-01-15T12:52:32;98415.97;;;-0.31;100.00
12594;BME280;6362;50.208;9.182;2024-01-15T12:54:57;98430.66;;;-0.10;100.00
12594;BME280;6362;50.208;9.182;2024-01-15T12:57:26;98434.88;;;-0.13;100.00
12594;BME280;6362;50.208;9.182;2024-01-15T12:59:53;98429.69;;;-0.21;100.00
12594;BME280;6362;50.208;9.182;2024-01-15T13:02:19;98432.19;;;-0.27;100.00
12594;BME280;6362;50.208;9.182;2024-01-15T13:04:45;98428.72;;;-0.32;100.00